Millenium Air

Millenium Air Since 1998



 METAR AND TAF INFORMATION
METAR FOR LIPR
ADDS - METARS form results

(2125 UTC 22 October 2020)
Data provider http://aviationweather.gov/metar/data/
 
METAR text: LIPR 222120Z AUTO VRB02KT 3900 BR BKN250/// 11/11 Q1023
Conditions at: LIPR (RIMINI (CIV/IT-A, IT) observed 2120 UTC 22 October 2020
Temperature: 11.0°C (52°F)
Dewpoint: 11.0°C (52°F) [RH = 100%]
Pressure (altimeter): 30.21 inches Hg (1023.0 mb)
Winds: variable direction winds at 2 MPH (2 knots; 1.0 m/s)
Visibility: 2.42 miles (3.89 km)
Ceiling: 25000 feet AGL
Clouds: broken clouds at 25000 feet AGL
Weather: BR  (mist)

METAR text: LIPR 222050Z AUTO 26002KT 5000 BR NCD 12/11 Q1023
Conditions at: LIPR (RIMINI (CIV/IT-A, IT) observed 2050 UTC 22 October 2020
Temperature: 12.0°C (54°F)
Dewpoint: 11.0°C (52°F) [RH = 94%]
Pressure (altimeter): 30.21 inches Hg (1023.0 mb)
Winds: from the W (260 degrees) at 2 MPH (2 knots; 1.0 m/s)
Visibility: 3 miles ( 5 km)
Ceiling: at least 12,000 feet AGL
Clouds: sky clear below 12,000 feet AGL
Weather: BR  (mist)

Forecast for: AMD
Text: TAF AMD LIPR 222029Z 2221/2306 VRB05KT 0600 FG BKN004
Forecast period: 2100 UTC 22 October 2020 to 0600 UTC 23 October 2020
Forecast type: FROM: standard forecast or significant change
Winds: variable direction winds at 6 MPH (5 knots; 2.6 m/s)
Visibility: 0.37 miles (0.60 km)
Ceiling: 400 feet AGL
Clouds: broken clouds at 400 feet AGL
Weather: FG  (fog)

 AIRPORT MAP

 RUNWAY INFORMATION
Runway 13 Runway length 9828 ft Runway width 148 ft
Runway elevation 21 ft Runway displaced threshold 1030 ft Runway heading 128
Runway 31 Runway length 9828 ft Runway width 148 ft
Runway elevation 39 ft Runway displaced threshold 1006 ft Runway heading 308

 AIRPORT FREQUENCIES
Type APP Name ROMAGNA AP Frequency 36.23 MHZ
Type APP Name ROMAGNA AP Frequency 118.15 MHZ
Type GCCD Name GND/CLNC D Frequency 121.6 MHZ
Type TWR Name TWR Frequency 119.1 MHZ

 AIRPORT NEAR NAVIGATION AIDS
Type VORTAC Name Rimini Frequency 116200 KHZ
Type NDB Name Rimini Frequency 335 KHZ